sensor_id;sensor_type;location;lat;lon;timestamp;temperature;humidity
68943;DHT22;60852;52.190;4.422;2024-02-14T00:01:03;9.73;90.54
68943;DHT22;60852;52.190;4.422;2024-02-14T00:03:29;9.76;90.69
68943;DHT22;60852;52.190;4.422;2024-02-14T00:05:55;9.83;90.68
68943;DHT22;60852;52.190;4.422;2024-02-14T00:08:22;9.86;90.76
68943;DHT22;60852;52.190;4.422;2024-02-14T00:10:48;9.89;90.73
68943;DHT22;60852;52.190;4.422;2024-02-14T00:13:14;9.89;90.81
68943;DHT22;60852;52.190;4.422;2024-02-14T00:15:40;9.86;91.12
68943;DHT22;60852;52.190;4.422;2024-02-14T00:18:06;9.94;91.02
68943;DHT22;60852;52.190;4.422;2024-02-14T00:20:31;10.00;90.91
68943;DHT22;60852;52.190;4.422;2024-02-14T00:22:58;10.03;90.87
68943;DHT22;60852;52.190;4.422;2024-02-14T00:25:23;10.09;90.97
68943;DHT22;60852;52.190;4.422;2024-02-14T00:27:49;10.12;90.81
68943;DHT22;60852;52.190;4.422;2024-02-14T00:30:15;10.16;90.66
68943;DHT22;60852;52.190;4.422;2024-02-14T00:32:40;10.10;91.01
68943;DHT22;60852;52.190;4.422;2024-02-14T00:35:06;10.17;91.02
68943;DHT22;60852;52.190;4.422;2024-02-14T00:37:32;10.23;91.03
68943;DHT22;60852;52.190;4.422;2024-02-14T00:39:58;10.29;90.87
68943;DHT22;60852;52.190;4.422;2024-02-14T00:42:24;10.34;90.86
68943;DHT22;60852;52.190;4.422;2024-02-14T00:44:49;10.37;90.80
68943;DHT22;60852;52.190;4.422;2024-02-14T00:47:15;10.37;90.82
68943;DHT22;60852;52.190;4.422;2024-02-14T00:49:40;10.41;90.93
68943;DHT22;60852;52.190;4.422;2024-02-14T00:52:06;10.47;90.89
68943;DHT22;60852;52.190;4.422;2024-02-14T00:54:32;10.51;90.65
68943;DHT22;60852;52.190;4.422;2024-02-14T00:56:57;10.55;90.69
68943;DHT22;60852;52.190;4.422;2024-02-14T00:59:22;10.58;90.71
68943;DHT22;60852;52.190;4.422;2024-02-14T01:01:48;10.60;90.77
68943;DHT22;60852;52.190;4.422;2024-02-14T01:04:14;10.55;90.80
68943;DHT22;60852;52.190;4.422;2024-02-14T01:06:39;10.65;90.87
68943;DHT22;60852;52.190;4.422;2024-02-14T01:09:05;10.72;90.65
68943;DHT22;60852;52.190;4.422;2024-02-14T01:11:30;10.78;90.46
68943;DHT22;60852;52.190;4.422;2024-02-14T01:13:56;10.79;90.48
68943;DHT22;60852;52.190;4.422;2024-02-14T01:16:21;10.83;90.33
68943;DHT22;60852;52.190;4.422;2024-02-14T01:18:47;10.83;90.13
68943;DHT22;60852;52.190;4.422;2024-02-14T01:21:12;10.75;90.45
68943;DHT22;60852;52.190;4.422;2024-02-14T01:23:37;10.81;90.40
68943;DHT22;60852;52.190;4.422;2024-02-14T01:26:03;10.85;90.42
68943;DHT22;60852;52.190;4.422;2024-02-14T01:28:28;10.91;90.16
68943;DHT22;60852;52.190;4.422;2024-02-14T01:30:54;10.89;90.26
68943;DHT22;60852;52.190;4.422;2024-02-14T01:33:21;10.95;90.19
68943;DHT22;60852;52.190;4.422;2024-02-14T01:35:47;10.95;90.33
68943;DHT22;60852;52.190;4.422;2024-02-14T01:38:12;10.99;90.33
68943;DHT22;60852;52.190;4.422;2024-02-14T01:40:38;11.02;90.21
68943;DHT22;60852;52.190;4.422;2024-02-14T01:43:04;10.99;90.43
68943;DHT22;60852;52.190;4.422;2024-02-14T01:45:29;10.98;90.52
68943;DHT22;60852;52.190;4.422;2024-02-14T01:47:54;11.03;90.35
68943;DHT22;60852;52.190;4.422;2024-02-14T01:50:22;10.98;90.71
68943;DHT22;60852;52.190;4.422;2024-02-14T01:52:56;10.93;90.84
68943;DHT22;60852;52.190;4.422;2024-02-14T01:55:25;10.98;90.85
68943;DHT22;60852;52.190;4.422;2024-02-14T01:57:52;10.99;90.94
68943;DHT22;60852;52.190;4.422;2024-02-14T02:00:18;10.98;91.13
68943;DHT22;60852;52.190;4.422;2024-02-14T02:02:44;10.95;91.09
68943;DHT22;60852;52.190;4.422;2024-02-14T02:05:12;11.01;90.99
68943;DHT22;60852;52.190;4.422;2024-02-14T02:07:38;10.96;90.72
68943;DHT22;60852;52.190;4.422;2024-02-14T02:10:11;10.99;90.93
68943;DHT22;60852;52.190;4.422;2024-02-14T02:12:37;10.93;91.04
68943;DHT22;60852;52.190;4.422;2024-02-14T02:15:06;10.91;91.12
68943;DHT22;60852;52.190;4.422;2024-02-14T02:17:33;10.92;91.08
68943;DHT22;60852;52.190;4.422;2024-02-14T02:20:01;10.83;91.20
68943;DHT22;60852;52.190;4.422;2024-02-14T02:22:27;10.83;91.34
68943;DHT22;60852;52.190;4.422;2024-02-14T02:24:54;10.91;91.20
68943;DHT22;60852;52.190;4.422;2024-02-14T02:27:20;10.82;91.33
68943;DHT22;60852;52.190;4.422;2024-02-14T02:29:45;10.83;91.31
68943;DHT22;60852;52.190;4.422;2024-02-14T02:32:11;10.76;91.37
68943;DHT22;60852;52.190;4.422;2024-02-14T02:34:37;10.76;91.39
68943;DHT22;60852;52.190;4.422;2024-02-14T02:37:05;10.81;91.40
68943;DHT22;60852;52.190;4.422;2024-02-14T02:39:33;10.78;91.41
68943;DHT22;60852;52.190;4.422;2024-02-14T02:41:59;10.72;91.44
68943;DHT22;60852;52.190;4.422;2024-02-14T02:44:24;10.75;91.54
68943;DHT22;60852;52.190;4.422;2024-02-14T02:46:50;10.76;91.55
68943;DHT22;60852;52.190;4.422;2024-02-14T02:49:16;10.79;91.69
68943;DHT22;60852;52.190;4.422;2024-02-14T02:51:41;10.81;91.69
68943;DHT22;60852;52.190;4.422;2024-02-14T02:54:06;10.81;91.52
68943;DHT22;60852;52.190;4.422;2024-02-14T02:56:33;10.88;91.61
68943;DHT22;60852;52.190;4.422;2024-02-14T02:58:59;10.88;91.48
68943;DHT22;60852;52.190;4.422;2024-02-14T03:01:24;10.92;91.46
68943;DHT22;60852;52.190;4.422;2024-02-14T03:03:55;10.85;91.55
68943;DHT22;60852;52.190;4.422;2024-02-14T03:06:20;10.92;91.39
68943;DHT22;60852;52.190;4.422;2024-02-14T03:08:46;10.91;91.33
68943;DHT22;60852;52.190;4.422;2024-02-14T03:11:11;10.88;91.38
68943;DHT22;60852;52.190;4.422;2024-02-14T03:13:37;10.89;91.50
68943;DHT22;60852;52.190;4.422;2024-02-14T03:16:06;10.86;91.61
68943;DHT22;60852;52.190;4.422;2024-02-14T03:18:32;10.86;91.40
68943;DHT22;60852;52.190;4.422;2024-02-14T03:20:58;10.88;91.50
68943;DHT22;60852;52.190;4.422;2024-02-14T03:23:23;10.86;91.36
68943;DHT22;60852;52.190;4.422;2024-02-14T03:25:49;10.88;91.17
68943;DHT22;60852;52.190;4.422;2024-02-14T03:28:14;10.88;91.25
68943;DHT22;60852;52.190;4.422;2024-02-14T03:30:40;10.89;91.32
68943;DHT22;60852;52.190;4.422;2024-02-14T03:33:05;10.93;91.36
68943;DHT22;60852;52.190;4.422;2024-02-14T03:35:33;10.96;91.30
68943;DHT22;60852;52.190;4.422;2024-02-14T03:38:01;10.99;91.39
68943;DHT22;60852;52.190;4.422;2024-02-14T03:40:26;11.01;91.18
68943;DHT22;60852;52.190;4.422;2024-02-14T03:42:52;11.02;91.30
68943;DHT22;60852;52.190;4.422;2024-02-14T03:45:18;11.06;91.20
68943;DHT22;60852;52.190;4.422;2024-02-14T03:47:44;11.06;91.01
68943;DHT22;60852;52.190;4.422;2024-02-14T03:50:09;11.12;90.94
68943;DHT22;60852;52.190;4.422;2024-02-14T03:52:35;11.13;90.71
68943;DHT22;60852;52.190;4.422;2024-02-14T03:55:01;11.09;90.85
68943;DHT22;60852;52.190;4.422;2024-02-14T03:57:28;11.10;90.93
68943;DHT22;60852;52.190;4.422;2024-02-14T03:59:54;11.06;91.04
68943;DHT22;60852;52.190;4.422;2024-02-14T04:02:21;11.06;91.14
68943;DHT22;60852;52.190;4.422;2024-02-14T04:04:49;11.09;91.07
68943;DHT22;60852;52.190;4.422;2024-02-14T04:07:14;11.05;91.17
68943;DHT22;60852;52.190;4.422;2024-02-14T04:09:40;11.03;91.16
68943;DHT22;60852;52.190;4.422;2024-02-14T04:12:05;11.12;91.20
68943;DHT22;60852;52.190;4.422;2024-02-14T04:14:31;11.09;91.17
68943;DHT22;60852;52.190;4.422;2024-02-14T04:16:56;11.05;91.43
68943;DHT22;60852;52.190;4.422;2024-02-14T04:19:22;11.09;91.16
68943;DHT22;60852;52.190;4.422;2024-02-14T04:21:47;11.09;91.09
68943;DHT22;60852;52.190;4.422;2024-02-14T04:24:13;11.10;91.41
68943;DHT22;60852;52.190;4.422;2024-02-14T04:26:39;11.05;91.36
68943;DHT22;60852;52.190;4.422;2024-02-14T04:29:04;11.10;91.35
68943;DHT22;60852;52.190;4.422;2024-02-14T04:31:30;11.06;91.19
68943;DHT22;60852;52.190;4.422;2024-02-14T04:33:57;11.15;91.41
68943;DHT22;60852;52.190;4.422;2024-02-14T04:36:23;11.08;91.36
68943;DHT22;60852;52.190;4.422;2024-02-14T04:38:49;11.13;91.42
68943;DHT22;60852;52.190;4.422;2024-02-14T04:41:14;11.13;91.52
68943;DHT22;60852;52.190;4.422;2024-02-14T04:43:40;11.09;91.73
68943;DHT22;60852;52.190;4.422;2024-02-14T04:46:06;11.16;91.69
68943;DHT22;60852;52.190;4.422;2024-02-14T04:48:35;11.18;91.62
68943;DHT22;60852;52.190;4.422;2024-02-14T04:51:04;11.19;91.82
68943;DHT22;60852;52.190;4.422;2024-02-14T04:53:32;11.16;91.79
68943;DHT22;60852;52.190;4.422;2024-02-14T04:55:58;11.20;91.75
68943;DHT22;60852;52.190;4.422;2024-02-14T04:58:23;11.18;91.64
68943;DHT22;60852;52.190;4.422;2024-02-14T05:00:49;11.12;91.85
68943;DHT22;60852;52.190;4.422;2024-02-14T05:03:15;11.19;91.72
68943;DHT22;60852;52.190;4.422;2024-02-14T05:05:41;11.18;91.74
68943;DHT22;60852;52.190;4.422;2024-02-14T05:08:06;11.16;91.73
68943;DHT22;60852;52.190;4.422;2024-02-14T05:10:32;11.24;91.73
68943;DHT22;60852;52.190;4.422;2024-02-14T05:12:58;11.23;91.67
68943;DHT22;60852;52.190;4.422;2024-02-14T05:15:23;11.24;91.61
68943;DHT22;60852;52.190;4.422;2024-02-14T05:17:49;11.27;91.58
68943;DHT22;60852;52.190;4.422;2024-02-14T05:20:16;11.22;91.89
68943;DHT22;60852;52.190;4.422;2024-02-14T05:22:41;11.29;91.62
68943;DHT22;60852;52.190;4.422;2024-02-14T05:25:07;11.30;91.56
68943;DHT22;60852;52.190;4.422;2024-02-14T05:27:34;11.24;91.68
68943;DHT22;60852;52.190;4.422;2024-02-14T05:30:00;11.29;91.77
68943;DHT22;60852;52.190;4.422;2024-02-14T05:32:25;11.30;91.59
68943;DHT22;60852;52.190;4.422;2024-02-14T05:34:51;11.36;91.58
68943;DHT22;60852;52.190;4.422;2024-02-14T05:37:16;11.31;91.60
68943;DHT22;60852;52.190;4.422;2024-02-14T05:39:42;11.37;91.67
68943;DHT22;60852;52.190;4.422;2024-02-14T05:42:08;11.39;91.41
68943;DHT22;60852;52.190;4.422;2024-02-14T05:44:33;11.39;91.54
68943;DHT22;60852;52.190;4.422;2024-02-14T05:46:58;11.37;91.29
68943;DHT22;60852;52.190;4.422;2024-02-14T05:49:25;11.44;91.41
68943;DHT22;60852;52.190;4.422;2024-02-14T05:51:51;11.37;91.23
68943;DHT22;60852;52.190;4.422;2024-02-14T05:54:18;11.34;91.39
68943;DHT22;60852;52.190;4.422;2024-02-14T05:56:44;11.36;91.44
68943;DHT22;60852;52.190;4.422;2024-02-14T05:59:10;11.39;91.48
68943;DHT22;60852;52.190;4.422;2024-02-14T06:01:35;11.44;91.32
68943;DHT22;60852;52.190;4.422;2024-02-14T06:04:01;11.49;91.13
68943;DHT22;60852;52.190;4.422;2024-02-14T06:06:26;11.47;91.29
68943;DHT22;60852;52.190;4.422;2024-02-14T06:08:52;11.53;91.03
68943;DHT22;60852;52.190;4.422;2024-02-14T06:11:17;11.49;91.09
68943;DHT22;60852;52.190;4.422;2024-02-14T06:13:47;11.53;90.96
68943;DHT22;60852;52.190;4.422;2024-02-14T06:16:13;11.50;91.13
68943;DHT22;60852;52.190;4.422;2024-02-14T06:18:39;11.54;91.03
68943;DHT22;60852;52.190;4.422;2024-02-14T06:21:07;11.50;90.98
68943;DHT22;60852;52.190;4.422;2024-02-14T06:23:33;11.59;90.98
68943;DHT22;60852;52.190;4.422;2024-02-14T06:25:59;11.51;91.13
68943;DHT22;60852;52.190;4.422;2024-02-14T06:28:24;11.53;91.26
68943;DHT22;60852;52.190;4.422;2024-02-14T06:30:50;11.54;90.98
68943;DHT22;60852;52.190;4.422;2024-02-14T06:33:16;11.60;90.96
68943;DHT22;60852;52.190;4.422;2024-02-14T06:35:41;11.56;90.92
68943;DHT22;60852;52.190;4.422;2024-02-14T06:38:07;11.59;91.08
68943;DHT22;60852;52.190;4.422;2024-02-14T06:40:33;11.60;90.94
68943;DHT22;60852;52.190;4.422;2024-02-14T06:42:59;11.56;91.14
68943;DHT22;60852;52.190;4.422;2024-02-14T06:45:28;11.61;91.14
68943;DHT22;60852;52.190;4.422;2024-02-14T06:47:54;11.61;91.05
68943;DHT22;60852;52.190;4.422;2024-02-14T06:50:20;11.67;90.79
68943;DHT22;60852;52.190;4.422;2024-02-14T06:52:45;11.67;90.85
68943;DHT22;60852;52.190;4.422;2024-02-14T06:55:11;11.64;90.80
68943;DHT22;60852;52.190;4.422;2024-02-14T06:57:38;11.64;90.76
68943;DHT22;60852;52.190;4.422;2024-02-14T07:00:04;11.68;90.54
68943;DHT22;60852;52.190;4.422;2024-02-14T07:02:31;11.64;90.76
68943;DHT22;60852;52.190;4.422;2024-02-14T07:04:57;11.71;90.80
68943;DHT22;60852;52.190;4.422;2024-02-14T07:07:22;11.73;90.70
68943;DHT22;60852;52.190;4.422;2024-02-14T07:09:48;11.73;90.67
68943;DHT22;60852;52.190;4.422;2024-02-14T07:12:13;11.71;90.74
68943;DHT22;60852;52.190;4.422;2024-02-14T07:14:39;11.70;90.94
68943;DHT22;60852;52.190;4.422;2024-02-14T07:17:04;11.74;90.91
68943;DHT22;60852;52.190;4.422;2024-02-14T07:19:30;11.81;90.70
68943;DHT22;60852;52.190;4.422;2024-02-14T07:21:55;11.82;90.60
68943;DHT22;60852;52.190;4.422;2024-02-14T07:24:21;11.80;90.50
68943;DHT22;60852;52.190;4.422;2024-02-14T07:26:46;11.80;90.65
68943;DHT22;60852;52.190;4.422;2024-02-14T07:29:12;11.90;90.67
68943;DHT22;60852;52.190;4.422;2024-02-14T07:31:38;11.81;90.47
68943;DHT22;60852;52.190;4.422;2024-02-14T07:34:03;11.85;90.59
68943;DHT22;60852;52.190;4.422;2024-02-14T07:36:29;11.94;90.50
68943;DHT22;60852;52.190;4.422;2024-02-14T07:38:55;11.97;90.18
68943;DHT22;60852;52.190;4.422;2024-02-14T07:41:20;11.95;90.33
68943;DHT22;60852;52.190;4.422;2024-02-14T07:43:46;11.99;90.20
68943;DHT22;60852;52.190;4.422;2024-02-14T07:46:11;11.95;90.01
68943;DHT22;60852;52.190;4.422;2024-02-14T07:48:41;11.95;90.18
68943;DHT22;60852;52.190;4.422;2024-02-14T07:51:07;11.92;90.28
68943;DHT22;60852;52.190;4.422;2024-02-14T07:53:33;11.91;90.53
68943;DHT22;60852;52.190;4.422;2024-02-14T07:55:58;11.90;90.65
68943;DHT22;60852;52.190;4.422;2024-02-14T07:58:24;11.92;90.44
68943;DHT22;60852;52.190;4.422;2024-02-14T08:00:49;11.95;90.65
68943;DHT22;60852;52.190;4.422;2024-02-14T08:03:15;11.94;90.49
68943;DHT22;60852;52.190;4.422;2024-02-14T08:05:40;11.98;90.42
68943;DHT22;60852;52.190;4.422;2024-02-14T08:08:08;12.02;90.46
68943;DHT22;60852;52.190;4.422;2024-02-14T08:10:33;12.08;90.44
68943;DHT22;60852;52.190;4.422;2024-02-14T08:12:58;12.09;90.21
68943;DHT22;60852;52.190;4.422;2024-02-14T08:15:24;12.09;90.50
68943;DHT22;60852;52.190;4.422;2024-02-14T08:17:49;12.12;90.45
68943;DHT22;60852;52.190;4.422;2024-02-14T08:20:15;12.05;90.69
68943;DHT22;60852;52.190;4.422;2024-02-14T08:22:40;12.11;90.53
68943;DHT22;60852;52.190;4.422;2024-02-14T08:25:06;12.12;90.41
68943;DHT22;60852;52.190;4.422;2024-02-14T08:27:32;12.15;90.36
68943;DHT22;60852;52.190;4.422;2024-02-14T08:29:57;12.11;90.18
68943;DHT22;60852;52.190;4.422;2024-02-14T08:32:23;12.11;90.35
68943;DHT22;60852;52.190;4.422;2024-02-14T08:34:48;12.02;90.57
68943;DHT22;60852;52.190;4.422;2024-02-14T08:37:16;12.06;90.76
68943;DHT22;60852;52.190;4.422;2024-02-14T08:39:41;12.11;90.49
68943;DHT22;60852;52.190;4.422;2024-02-14T08:42:07;12.08;90.40
68943;DHT22;60852;52.190;4.422;2024-02-14T08:44:33;12.17;90.56
68943;DHT22;60852;52.190;4.422;2024-02-14T08:46:59;12.14;90.52
68943;DHT22;60852;52.190;4.422;2024-02-14T08:49:25;12.15;90.54
68943;DHT22;60852;52.190;4.422;2024-02-14T08:51:50;12.25;90.56
68943;DHT22;60852;52.190;4.422;2024-02-14T08:54:16;12.19;90.43
68943;DHT22;60852;52.190;4.422;2024-02-14T08:56:41;12.17;90.49
68943;DHT22;60852;52.190;4.422;2024-02-14T08:59:07;12.17;90.54
68943;DHT22;60852;52.190;4.422;2024-02-14T09:01:32;12.17;90.48
68943;DHT22;60852;52.190;4.422;2024-02-14T09:03:58;12.12;90.47
68943;DHT22;60852;52.190;4.422;2024-02-14T09:06:24;12.12;90.66
68943;DHT22;60852;52.190;4.422;2024-02-14T09:08:51;12.17;90.67
68943;DHT22;60852;52.190;4.422;2024-02-14T09:11:17;12.06;90.73
68943;DHT22;60852;52.190;4.422;2024-02-14T09:13:43;12.11;90.86
68943;DHT22;60852;52.190;4.422;2024-02-14T09:16:09;12.11;90.91
68943;DHT22;60852;52.190;4.422;2024-02-14T09:18:37;12.14;90.80
68943;DHT22;60852;52.190;4.422;2024-02-14T09:21:03;12.11;91.03
68943;DHT22;60852;52.190;4.422;2024-02-14T09:23:31;12.12;90.98
68943;DHT22;60852;52.190;4.422;2024-02-14T09:25:57;12.24;90.85
68943;DHT22;60852;52.190;4.422;2024-02-14T09:28:23;12.22;90.64
68943;DHT22;60852;52.190;4.422;2024-02-14T09:30:48;12.24;90.73
68943;DHT22;60852;52.190;4.422;2024-02-14T09:33:14;12.28;90.72
68943;DHT22;60852;52.190;4.422;2024-02-14T09:35:40;12.33;90.64
68943;DHT22;60852;52.190;4.422;2024-02-14T09:38:10;12.32;90.39
68943;DHT22;60852;52.190;4.422;2024-02-14T09:40:40;12.22;90.48
68943;DHT22;60852;52.190;4.422;2024-02-14T09:43:17;12.28;90.70
68943;DHT22;60852;52.190;4.422;2024-02-14T09:45:46;12.25;90.46
68943;DHT22;60852;52.190;4.422;2024-02-14T09:48:13;12.33;90.44
68943;DHT22;60852;52.190;4.422;2024-02-14T09:50:40;12.35;90.44
68943;DHT22;60852;52.190;4.422;2024-02-14T09:53:07;12.38;90.50
68943;DHT22;60852;52.190;4.422;2024-02-14T09:55:32;12.49;90.27
68943;DHT22;60852;52.190;4.422;2024-02-14T09:57:58;12.50;90.14
68943;DHT22;60852;52.190;4.422;2024-02-14T10:00:31;12.56;90.14
68943;DHT22;60852;52.190;4.422;2024-02-14T10:03:04;12.57;90.00
68943;DHT22;60852;52.190;4.422;2024-02-14T10:05:31;12.63;89.96
68943;DHT22;60852;52.190;4.422;2024-02-14T10:07:57;12.52;89.61
68943;DHT22;60852;52.190;4.422;2024-02-14T10:10:24;12.57;89.82
68943;DHT22;60852;52.190;4.422;2024-02-14T10:12:50;12.55;89.83
68943;DHT22;60852;52.190;4.422;2024-02-14T10:15:15;12.61;89.95
68943;DHT22;60852;52.190;4.422;2024-02-14T10:17:40;12.72;89.84
68943;DHT22;60852;52.190;4.422;2024-02-14T10:20:06;12.72;89.88
68943;DHT22;60852;52.190;4.422;2024-02-14T10:22:34;12.69;89.92
68943;DHT22;60852;52.190;4.422;2024-02-14T10:25:01;12.70;89.79
68943;DHT22;60852;52.190;4.422;2024-02-14T10:27:26;12.67;89.71
68943;DHT22;60852;52.190;4.422;2024-02-14T10:29:56;12.55;89.90
68943;DHT22;60852;52.190;4.422;2024-02-14T10:32:22;12.43;90.19
68943;DHT22;60852;52.190;4.422;2024-02-14T10:34:49;12.43;90.38
68943;DHT22;60852;52.190;4.422;2024-02-14T10:37:17;12.46;90.35
68943;DHT22;60852;52.190;4.422;2024-02-14T10:39:46;12.50;90.34
68943;DHT22;60852;52.190;4.422;2024-02-14T10:42:15;12.49;90.23
68943;DHT22;60852;52.190;4.422;2024-02-14T10:44:40;12.49;89.89
68943;DHT22;60852;52.190;4.422;2024-02-14T10:47:10;12.43;90.09
68943;DHT22;60852;52.190;4.422;2024-02-14T10:49:39;12.36;90.33
68943;DHT22;60852;52.190;4.422;2024-02-14T10:52:08;12.36;90.37
68943;DHT22;60852;52.190;4.422;2024-02-14T10:54:35;12.36;90.23
68943;DHT22;60852;52.190;4.422;2024-02-14T10:57:05;12.35;90.42
68943;DHT22;60852;52.190;4.422;2024-02-14T10:59:43;12.39;90.27
68943;DHT22;60852;52.190;4.422;2024-02-14T11:02:10;12.40;90.34
68943;DHT22;60852;52.190;4.422;2024-02-14T11:04:37;12.42;90.41
68943;DHT22;60852;52.190;4.422;2024-02-14T11:07:02;12.42;90.25
68943;DHT22;60852;52.190;4.422;2024-02-14T11:09:32;12.38;90.48
68943;DHT22;60852;52.190;4.422;2024-02-14T11:12:02;12.45;90.55
68943;DHT22;60852;52.190;4.422;2024-02-14T11:14:32;12.49;90.40
68943;DHT22;60852;52.190;4.422;2024-02-14T11:17:01;12.50;90.51
68943;DHT22;60852;52.190;4.422;2024-02-14T11:19:33;12.50;90.51
68943;DHT22;60852;52.190;4.422;2024-02-14T11:22:10;12.46;90.60
68943;DHT22;60852;52.190;4.422;2024-02-14T11:24:37;12.46;90.70
68943;DHT22;60852;52.190;4.422;2024-02-14T11:27:02;12.45;90.90
68943;DHT22;60852;52.190;4.422;2024-02-14T11:29:31;12.48;90.87
68943;DHT22;60852;52.190;4.422;2024-02-14T11:32:01;12.53;90.93
68943;DHT22;60852;52.190;4.422;2024-02-14T11:34:28;12.59;90.82
68943;DHT22;60852;52.190;4.422;2024-02-14T11:36:54;12.63;90.79
68943;DHT22;60852;52.190;4.422;2024-02-14T11:39:22;12.76;90.60
68943;DHT22;60852;52.190;4.422;2024-02-14T11:41:48;12.76;90.39
68943;DHT22;60852;52.190;4.422;2024-02-14T11:44:13;12.76;90.39
68943;DHT22;60852;52.190;4.422;2024-02-14T11:46:39;12.76;90.46
68943;DHT22;60852;52.190;4.422;2024-02-14T11:49:05;12.75;90.44
68943;DHT22;60852;52.190;4.422;2024-02-14T11:51:33;12.72;90.44
68943;DHT22;60852;52.190;4.422;2024-02-14T11:54:01;12.72;90.62
68943;DHT22;60852;52.190;4.422;2024-02-14T11:56:33;12.70;90.57
68943;DHT22;60852;52.190;4.422;2024-02-14T11:59:00;12.70;90.81
68943;DHT22;60852;52.190;4.422;2024-02-14T12:01:36;12.72;90.84
68943;DHT22;60852;52.190;4.422;2024-02-14T12:04:04;12.72;90.88
68943;DHT22;60852;52.190;4.422;2024-02-14T12:06:31;12.77;90.75
68943;DHT22;60852;52.190;4.422;2024-02-14T12:09:01;12.77;90.84
68943;DHT22;60852;52.190;4.422;2024-02-14T12:11:31;12.79;90.94
68943;DHT22;60852;52.190;4.422;2024-02-14T12:14:01;12.79;90.91
68943;DHT22;60852;52.190;4.422;2024-02-14T12:16:28;12.76;91.07
68943;DHT22;60852;52.190;4.422;2024-02-14T12:19:20;12.75;91.04
68943;DHT22;60852;52.190;4.422;2024-02-14T12:21:45;12.79;91.00
68943;DHT22;60852;52.190;4.422;2024-02-14T12:24:14;12.77;90.93
68943;DHT22;60852;52.190;4.422;2024-02-14T12:26:41;12.75;91.17
68943;DHT22;60852;52.190;4.422;2024-02-14T12:29:07;12.79;91.13
68943;DHT22;60852;52.190;4.422;2024-02-14T12:31:34;12.80;91.14
68943;DHT22;60852;52.190;4.422;2024-02-14T12:34:02;12.80;91.12
68943;DHT22;60852;52.190;4.422;2024-02-14T12:36:31;12.81;91.03
68943;DHT22;60852;52.190;4.422;2024-02-14T12:38:58;12.83;91.10
68943;DHT22;60852;52.190;4.422;2024-02-14T12:41:23;12.86;91.11
68943;DHT22;60852;52.190;4.422;2024-02-14T12:43:52;12.86;91.18
68943;DHT22;60852;52.190;4.422;2024-02-14T12:46:17;12.84;91.27
68943;DHT22;60852;52.190;4.422;2024-02-14T12:48:43;12.81;91.37
68943;DHT22;60852;52.190;4.422;2024-02-14T12:51:10;12.84;91.38
68943;DHT22;60852;52.190;4.422;2024-02-14T12:53:35;12.86;91.54
68943;DHT22;60852;52.190;4.422;2024-02-14T12:56:01;12.87;91.48
68943;DHT22;60852;52.190;4.422;2024-02-14T12:58:26;12.86;91.43
68943;DHT22;60852;52.190;4.422;2024-02-14T13:00:52;12.83;91.69
68943;DHT22;60852;52.190;4.422;2024-02-14T13:03:19;12.79;91.70
68943;DHT22;60852;52.190;4.422;2024-02-14T13:05:44;12.76;91.78
68943;DHT22;60852;52.190;4.422;2024-02-14T13:08:10;12.83;91.82
68943;DHT22;60852;52.190;4.422;2024-02-14T13:10:38;12.83;91.63
68943;DHT22;60852;52.190;4.422;2024-02-14T13:13:04;12.77;91.73
68943;DHT22;60852;52.190;4.422;2024-02-14T13:15:30;12.73;91.73
68943;DHT22;60852;52.190;4.422;2024-02-14T13:17:55;12.66;91.88
68943;DHT22;60852;52.190;4.422;2024-02-14T13:20:24;12.69;91.83
68943;DHT22;60852;52.190;4.422;2024-02-14T13:22:49;12.75;91.78
68943;DHT22;60852;52.190;4.422;2024-02-14T13:25:15;12.77;91.58
68943;DHT22;60852;52.190;4.422;2024-02-14T13:27:40;12.73;91.45
68943;DHT22;60852;52.190;4.422;2024-02-14T13:30:06;12.73;91.35
68943;DHT22;60852;52.190;4.422;2024-02-14T13:32:34;12.61;91.39
68943;DHT22;60852;52.190;4.422;2024-02-14T13:35:00;12.60;91.49
68943;DHT22;60852;52.190;4.422;2024-02-14T13:37:25;12.61;91.34
68943;DHT22;60852;52.190;4.422;2024-02-14T13:39:51;12.53;91.41
68943;DHT22;60852;52.190;4.422;2024-02-14T13:42:17;12.57;91.29
68943;DHT22;60852;52.190;4.422;2024-02-14T13:44:42;12.53;91.32
68943;DHT22;60852;52.190;4.422;2024-02-14T13:47:08;12.56;91.24
68943;DHT22;60852;52.190;4.422;2024-02-14T13:49:34;12.59;91.34
68943;DHT22;60852;52.190;4.422;2024-02-14T13:51:59;12.60;91.23
68943;DHT22;60852;52.190;4.422;2024-02-14T13:54:25;12.57;91.23
68943;DHT22;60852;52.190;4.422;2024-02-14T13:56:50;12.69;91.35
68943;DHT22;60852;52.190;4.422;2024-02-14T13:59:17;12.60;91.02
68943;DHT22;60852;52.190;4.422;2024-02-14T14:01:45;12.69;91.12
68943;DHT22;60852;52.190;4.422;2024-02-14T14:04:11;12.70;91.02
68943;DHT22;60852;52.190;4.422;2024-02-14T14:06:38;12.69;90.83
68943;DHT22;60852;52.190;4.422;2024-02-14T14:09:04;12.70;90.96
68943;DHT22;60852;52.190;4.422;2024-02-14T14:11:33;12.70;90.89
68943;DHT22;60852;52.190;4.422;2024-02-14T14:13:59;12.72;90.91
68943;DHT22;60852;52.190;4.422;2024-02-14T14:16:25;12.67;90.77
68943;DHT22;60852;52.190;4.422;2024-02-14T14:18:51;12.63;90.96
68943;DHT22;60852;52.190;4.422;2024-02-14T14:21:16;12.60;91.03
68943;DHT22;60852;52.190;4.422;2024-02-14T14:23:42;12.61;90.85
68943;DHT22;60852;52.190;4.422;2024-02-14T14:26:08;12.57;90.78
68943;DHT22;60852;52.190;4.422;2024-02-14T14:28:34;12.61;90.77
68943;DHT22;60852;52.190;4.422;2024-02-14T14:31:00;12.56;90.76
68943;DHT22;60852;52.190;4.422;2024-02-14T14:33:27;12.45;90.80
68943;DHT22;60852;52.190;4.422;2024-02-14T14:35:52;12.46;90.81
68943;DHT22;60852;52.190;4.422;2024-02-14T14:38:20;12.42;90.84
68943;DHT22;60852;52.190;4.422;2024-02-14T14:40:47;12.38;90.94
68943;DHT22;60852;52.190;4.422;2024-02-14T14:43:13;12.46;91.11
68943;DHT22;60852;52.190;4.422;2024-02-14T14:45:39;12.43;90.82
68943;DHT22;60852;52.190;4.422;2024-02-14T14:48:06;12.48;90.68
68943;DHT22;60852;52.190;4.422;2024-02-14T14:50:34;12.48;90.67
68943;DHT22;60852;52.190;4.422;2024-02-14T14:53:00;12.46;90.69
68943;DHT22;60852;52.190;4.422;2024-02-14T14:55:48;12.45;90.77
68943;DHT22;60852;52.190;4.422;2024-02-14T14:58:14;12.48;90.66
68943;DHT22;60852;52.190;4.422;2024-02-14T15:00:40;12.40;90.64
68943;DHT22;60852;52.190;4.422;2024-02-14T15:03:05;12.35;90.71
68943;DHT22;60852;52.190;4.422;2024-02-14T15:05:31;12.38;90.92
68943;DHT22;60852;52.190;4.422;2024-02-14T15:07:57;12.40;90.67
68943;DHT22;60852;52.190;4.422;2024-02-14T15:10:22;12.42;90.55
68943;DHT22;60852;52.190;4.422;2024-02-14T15:12:47;12.39;90.63
68943;DHT22;60852;52.190;4.422;2024-02-14T15:15:13;12.50;90.38
68943;DHT22;60852;52.190;4.422;2024-02-14T15:17:39;12.38;90.32
68943;DHT22;60852;52.190;4.422;2024-02-14T15:20:05;12.39;90.50
68943;DHT22;60852;52.190;4.422;2024-02-14T15:22:31;12.36;90.35
68943;DHT22;60852;52.190;4.422;2024-02-14T15:24:57;12.38;90.36